createdAt,value
2023-05-11T00:01:25.779Z,17.98
2023-05-11T00:06:22.155Z,17.70
2023-05-11T00:11:18.871Z,17.98
2023-05-11T00:16:15.418Z,18.17
2023-05-11T00:21:11.908Z,20.05
2023-05-11T00:26:08.341Z,19.30
2023-05-11T00:31:04.839Z,20.05
2023-05-11T00:36:01.816Z,19.27
2023-05-11T00:40:58.304Z,18.42
2023-05-11T00:45:54.812Z,20.08
2023-05-11T00:50:51.419Z,19.17
2023-05-11T00:55:48.032Z,19.92
2023-05-11T01:00:44.668Z,20.92
2023-05-11T01:05:48.694Z,17.88
2023-05-11T01:10:54.130Z,18.88
2023-05-11T01:15:52.416Z,19.20
2023-05-11T01:20:51.043Z,15.18
2023-05-11T01:25:59.538Z,18.27
2023-05-11T01:31:07.078Z,18.00
2023-05-11T01:36:07.909Z,16.73
2023-05-11T01:41:12.106Z,17.65
2023-05-11T01:46:10.794Z,14.32
2023-05-11T01:51:09.011Z,14.20
2023-05-11T02:01:04.238Z,18.50
2023-05-11T02:06:03.076Z,19.67
2023-05-11T02:11:02.375Z,21.63
2023-05-11T02:16:00.242Z,20.10
2023-05-11T02:20:59.351Z,15.52
2023-05-11T02:25:56.890Z,17.15
2023-05-11T02:30:56.847Z,16.42
2023-05-11T02:35:55.898Z,16.67
2023-05-11T02:40:57.567Z,19.65
2023-05-11T02:45:59.113Z,19.25
2023-05-11T02:50:58.253Z,20.20
2023-05-11T02:55:55.857Z,20.73
2023-05-11T03:00:52.962Z,21.40
2023-05-11T03:05:49.439Z,20.85
2023-05-11T03:10:46.814Z,18.30
2023-05-11T03:15:44.060Z,20.07
2023-05-11T03:20:43.576Z,18.63
2023-05-11T03:25:42.947Z,15.23
2023-05-11T03:30:40.421Z,18.48
2023-05-11T03:35:37.811Z,20.80
2023-05-11T03:40:34.678Z,19.00
2023-05-11T03:45:33.132Z,18.60
2023-05-11T03:50:30.630Z,18.95
2023-05-11T03:55:27.734Z,20.10
2023-05-11T04:00:24.377Z,19.75
2023-05-11T04:05:20.790Z,20.55
2023-05-11T04:10:17.314Z,19.38
2023-05-11T04:15:13.807Z,19.13
2023-05-11T04:20:10.417Z,19.52
2023-05-11T04:25:07.131Z,20.70
2023-05-11T04:30:03.725Z,22.38
2023-05-11T04:35:00.090Z,20.50
2023-05-11T04:39:57.087Z,19.58
2023-05-11T04:44:54.521Z,21.30
2023-05-11T04:49:51.942Z,20.27
2023-05-11T04:54:48.333Z,19.97
2023-05-11T04:59:44.903Z,20.73
2023-05-11T05:04:41.343Z,23.67
2023-05-11T05:09:37.770Z,22.52
2023-05-11T05:14:34.244Z,22.75
2023-05-11T05:19:30.670Z,23.60
2023-05-11T05:24:27.038Z,20.55
2023-05-11T05:29:23.435Z,24.30
2023-05-11T05:34:19.827Z,22.20
2023-05-11T05:39:16.738Z,20.90
2023-05-11T05:44:13.258Z,20.45
2023-05-11T05:49:09.760Z,19.98
2023-05-11T05:54:06.181Z,20.05
2023-05-11T05:59:02.626Z,20.20
2023-05-11T06:03:59.172Z,21.88
2023-05-11T06:08:55.695Z,23.27
2023-05-11T06:13:52.141Z,23.63
2023-05-11T06:18:48.506Z,24.65
2023-05-11T06:23:44.960Z,24.60
2023-05-11T06:28:41.338Z,23.60
2023-05-11T06:33:37.819Z,22.33
2023-05-11T06:38:34.193Z,26.05
2023-05-11T06:43:30.568Z,24.58
2023-05-11T06:48:29.722Z,25.45
2023-05-11T06:53:26.612Z,26.02
2023-05-11T06:58:23.173Z,24.10
2023-05-11T07:03:19.561Z,24.30
2023-05-11T07:08:16.008Z,22.75
2023-05-11T07:13:12.414Z,20.13
2023-05-11T07:18:08.929Z,22.40
2023-05-11T07:23:05.400Z,20.65
2023-05-11T07:28:01.845Z,21.25
2023-05-11T07:32:58.217Z,21.45
2023-05-11T07:37:54.835Z,21.67
2023-05-11T07:42:51.200Z,20.90
2023-05-11T07:47:47.640Z,19.75
2023-05-11T07:52:44.093Z,19.15
2023-05-11T07:57:40.486Z,19.85
2023-05-11T08:02:36.929Z,20.70
2023-05-11T08:07:33.387Z,19.85
2023-05-11T08:12:29.802Z,18.75
2023-05-11T08:17:26.384Z,19.17
2023-05-11T08:22:23.143Z,20.23
2023-05-11T08:27:19.576Z,21.35
2023-05-11T08:32:16.619Z,18.88
2023-05-11T08:37:13.725Z,20.25
2023-05-11T08:42:14.260Z,19.45
2023-05-11T08:47:22.868Z,18.17
2023-05-11T08:52:20.460Z,18.63
2023-05-11T08:57:17.535Z,16.48
2023-05-11T09:02:18.889Z,16.40
2023-05-11T09:07:17.439Z,17.80
2023-05-11T09:12:14.409Z,18.38
2023-05-11T09:17:11.087Z,18.65
2023-05-11T09:22:07.802Z,18.60
2023-05-11T09:27:09.154Z,17.38
2023-05-11T09:32:06.053Z,17.80
2023-05-11T09:37:02.430Z,16.42
2023-05-11T09:42:16.159Z,16.80
2023-05-11T09:47:19.846Z,16.20
2023-05-11T09:52:18.247Z,15.15
2023-05-11T09:57:27.122Z,12.75
2023-05-11T10:02:26.392Z,5.97
2023-05-11T10:07:28.301Z,5.57
2023-05-11T10:12:26.130Z,3.95
2023-05-11T10:17:22.631Z,4.43
2023-05-11T10:22:19.320Z,4.20
2023-05-11T10:27:17.810Z,3.97
2023-05-11T10:32:16.843Z,3.57
2023-05-11T10:37:15.255Z,4.60
2023-05-11T10:42:39.167Z,3.97
2023-05-11T10:47:41.571Z,4.85
2023-05-11T10:52:53.030Z,4.68
2023-05-11T10:58:09.485Z,4.70
2023-05-11T11:03:13.433Z,5.25
2023-05-11T11:08:10.080Z,4.60
2023-05-11T11:13:11.465Z,4.43
2023-05-11T11:18:28.015Z,4.03
2023-05-11T11:23:39.418Z,4.28
2023-05-11T11:28:54.068Z,3.65
2023-05-11T11:33:50.618Z,3.50
2023-05-11T11:39:03.870Z,3.40
2023-05-11T11:44:00.492Z,3.33
2023-05-11T11:49:08.092Z,3.40
2023-05-11T11:54:04.856Z,3.42
2023-05-11T11:59:03.892Z,3.17
2023-05-11T12:04:16.780Z,3.33
2023-05-11T12:09:19.126Z,3.17
2023-05-11T12:14:15.792Z,3.33
2023-05-11T12:19:12.244Z,2.80
2023-05-11T12:24:11.575Z,3.60
2023-05-11T12:29:13.189Z,2.45
2023-05-11T12:34:22.953Z,2.78
2023-05-11T12:39:25.444Z,2.30
2023-05-11T12:44:24.428Z,2.70
2023-05-11T12:49:26.410Z,2.80
2023-05-11T12:54:31.864Z,2.78
2023-05-11T12:59:30.251Z,3.10
2023-05-11T13:04:30.490Z,3.47
2023-05-11T13:09:27.862Z,3.00
2023-05-11T13:14:25.175Z,3.53
2023-05-11T13:19:29.373Z,3.23
2023-05-11T13:24:27.009Z,3.13
2023-05-11T13:29:23.426Z,3.58
2023-05-11T13:34:20.725Z,3.75
2023-05-11T13:39:17.272Z,3.90
2023-05-11T13:44:13.709Z,4.10
2023-05-11T13:49:10.169Z,4.70
2023-05-11T13:54:06.879Z,5.90
2023-05-11T13:59:03.559Z,7.45
2023-05-11T14:03:59.982Z,7.88
2023-05-11T14:08:56.467Z,8.45
2023-05-11T14:13:52.879Z,7.68
2023-05-11T14:18:50.621Z,6.97
2023-05-11T14:24:02.049Z,6.40
2023-05-11T14:28:58.804Z,6.05
2023-05-11T14:33:56.589Z,6.18
2023-05-11T14:38:53.237Z,6.25
2023-05-11T14:43:49.687Z,5.07
2023-05-11T14:48:46.071Z,5.38
2023-05-11T14:53:42.706Z,4.57
2023-05-11T14:58:39.190Z,3.22
2023-05-11T15:03:37.263Z,3.22
2023-05-11T15:08:33.818Z,3.65
2023-05-11T15:13:30.666Z,3.95
2023-05-11T15:18:27.125Z,4.30
2023-05-11T15:23:23.784Z,5.13
2023-05-11T15:28:20.816Z,4.75
2023-05-11T15:33:18.141Z,4.63
2023-05-11T15:38:14.592Z,4.63
2023-05-11T15:43:11.559Z,4.22
2023-05-11T15:48:08.025Z,5.53
2023-05-11T15:53:04.483Z,5.47
2023-05-11T15:58:00.875Z,4.50
2023-05-11T16:02:57.291Z,5.22
2023-05-11T16:07:53.725Z,4.55
2023-05-11T16:12:50.220Z,4.93
2023-05-11T16:17:47.403Z,4.88
2023-05-11T16:22:43.794Z,4.53
2023-05-11T16:27:40.221Z,5.00
2023-05-11T16:32:36.691Z,4.53
2023-05-11T16:37:33.121Z,3.75
2023-05-11T16:42:29.585Z,3.30
2023-05-11T16:47:26.118Z,3.40
2023-05-11T16:52:22.604Z,3.47
2023-05-11T16:57:19.072Z,4.22
2023-05-11T17:02:15.721Z,3.95
2023-05-11T17:07:14.868Z,4.68
2023-05-11T17:12:11.456Z,4.85
2023-05-11T17:17:08.462Z,4.97
2023-05-11T17:22:05.143Z,5.20
2023-05-11T17:27:01.561Z,5.35
2023-05-11T17:31:58.230Z,5.03
2023-05-11T17:36:54.773Z,5.72
2023-05-11T17:41:51.210Z,5.43
2023-05-11T17:46:47.847Z,5.03
2023-05-11T17:51:44.219Z,5.32
2023-05-11T17:56:41.197Z,5.70
2023-05-11T18:01:37.629Z,6.00
2023-05-11T18:06:34.648Z,7.03
2023-05-11T18:11:31.169Z,8.05
2023-05-11T18:16:27.717Z,10.88
2023-05-11T18:21:26.704Z,11.00
2023-05-11T18:26:26.034Z,9.63
2023-05-11T18:31:22.557Z,10.15
2023-05-11T18:36:19.004Z,12.20
2023-05-11T18:41:15.683Z,11.48
2023-05-11T18:46:12.178Z,11.80
2023-05-11T18:51:09.017Z,12.80
2023-05-11T18:56:05.496Z,13.95
2023-05-11T19:01:02.017Z,13.68
2023-05-11T19:06:00.615Z,13.30
2023-05-11T19:10:57.296Z,9.13
2023-05-11T19:15:53.803Z,8.38
2023-05-11T19:20:50.233Z,8.35
2023-05-11T19:25:46.673Z,7.85
2023-05-11T19:30:43.155Z,9.20
2023-05-11T19:35:40.576Z,10.60
2023-05-11T19:40:45.825Z,11.90
2023-05-11T19:45:46.357Z,14.82
2023-05-11T19:50:43.090Z,16.15
2023-05-11T19:55:40.354Z,15.85
2023-05-11T20:00:38.379Z,17.07
2023-05-11T20:05:35.143Z,19.17
2023-05-11T20:10:32.084Z,20.52
2023-05-11T20:15:28.479Z,22.85
2023-05-11T20:20:24.920Z,21.17
2023-05-11T20:25:21.724Z,22.00
2023-05-11T20:30:18.576Z,21.70
2023-05-11T20:35:15.101Z,21.65
2023-05-11T20:40:12.180Z,23.35
2023-05-11T20:45:09.057Z,22.40
2023-05-11T20:50:06.309Z,24.02
2023-05-11T20:55:03.334Z,25.63
2023-05-11T21:05:01.911Z,26.27
2023-05-11T21:09:58.547Z,27.33
2023-05-11T21:14:56.888Z,26.88
2023-05-11T21:19:53.588Z,27.17
2023-05-11T21:24:49.993Z,27.23
2023-05-11T21:29:46.343Z,27.52
2023-05-11T21:34:43.294Z,27.58
2023-05-11T21:39:39.645Z,27.60
2023-05-11T21:44:35.984Z,27.52
2023-05-11T21:49:33.154Z,28.33
2023-05-11T21:54:29.601Z,27.10
2023-05-11T21:59:27.001Z,27.75
2023-05-11T22:04:23.624Z,28.00
2023-05-11T22:09:20.397Z,29.38
2023-05-11T22:14:17.619Z,28.48
2023-05-11T22:19:13.964Z,28.88
2023-05-11T22:24:10.558Z,27.38
2023-05-11T22:29:06.976Z,28.88
2023-05-11T22:34:03.332Z,27.88
2023-05-11T22:38:59.734Z,26.27
2023-05-11T22:43:56.288Z,28.85
2023-05-11T22:48:52.743Z,27.83
2023-05-11T22:53:49.114Z,29.15
2023-05-11T22:58:45.828Z,27.13
2023-05-11T23:03:42.703Z,27.10
2023-05-11T23:08:39.343Z,28.27
2023-05-11T23:13:36.137Z,25.40
2023-05-11T23:18:32.898Z,25.98
2023-05-11T23:23:29.465Z,24.67
2023-05-11T23:28:26.024Z,24.08
2023-05-11T23:33:22.892Z,24.92
2023-05-11T23:38:19.268Z,25.05
2023-05-11T23:43:16.220Z,24.30
2023-05-11T23:48:12.660Z,23.20
2023-05-11T23:53:09.054Z,23.42
2023-05-11T23:58:05.413Z,24.70
